createdAt,value
2019-05-11T00:00:18.589Z,97.5
2019-05-11T00:01:20.452Z,97.6
2019-05-11T00:02:22.322Z,97.5
2019-05-11T00:03:24.185Z,97.4
2019-05-11T00:04:26.054Z,97.4
2019-05-11T00:05:27.649Z,97
2019-05-11T00:06:29.231Z,97.2
2019-05-11T00:07:31.103Z,97.2
2019-05-11T00:08:32.967Z,97.1
2019-05-11T00:09:34.548Z,97.2
2019-05-11T00:10:36.106Z,97.2
2019-05-11T00:11:37.967Z,97.2
2019-05-11T00:12:39.827Z,97.2
2019-05-11T00:13:41.694Z,97.2
2019-05-11T00:14:43.549Z,97.2
2019-05-11T00:15:45.412Z,97.2
2019-05-11T00:16:47.269Z,97.3
2019-05-11T00:17:49.135Z,97.4
2019-05-11T00:18:50.995Z,97.6
2019-05-11T00:19:52.867Z,97.6
2019-05-11T00:20:54.734Z,97.7
2019-05-11T00:21:56.595Z,97.6
2019-05-11T00:22:58.495Z,97.7
2019-05-11T00:24:00.368Z,97.7
2019-05-11T00:25:02.373Z,97.7
2019-05-11T00:26:03.987Z,97.8
2019-05-11T00:27:05.847Z,97.9
2019-05-11T00:28:07.722Z,97.7
2019-05-11T00:29:09.679Z,97.7
2019-05-11T00:30:11.542Z,97.5
2019-05-11T00:31:13.404Z,97.5
2019-05-11T00:32:15.267Z,97.4
2019-05-11T00:33:17.137Z,97.3
2019-05-11T00:34:19.002Z,97.3
2019-05-11T00:35:20.865Z,97.2
2019-05-11T00:36:22.729Z,97.1
2019-05-11T00:37:24.601Z,97.1
2019-05-11T00:38:26.470Z,97
2019-05-11T00:39:28.332Z,97.2
2019-05-11T00:40:30.196Z,97.2
2019-05-11T00:41:32.050Z,97.2
2019-05-11T00:42:33.916Z,97.2
2019-05-11T00:43:35.786Z,97.2
2019-05-11T00:44:37.637Z,97.2
2019-05-11T00:45:39.508Z,97.2
2019-05-11T00:46:41.367Z,97.1
2019-05-11T00:47:43.231Z,97
2019-05-11T00:48:45.116Z,97
2019-05-11T00:49:46.708Z,97
2019-05-11T00:50:48.566Z,97
2019-05-11T00:51:50.428Z,96.9
2019-05-11T00:52:52.292Z,97
2019-05-11T00:53:54.210Z,97
2019-05-11T00:54:55.506Z,96.8
2019-05-11T00:55:57.365Z,96.8
2019-05-11T00:56:59.227Z,96.8
2019-05-11T00:58:01.086Z,96.8
2019-05-11T00:59:02.662Z,96.7
2019-05-11T01:00:04.249Z,96.6
2019-05-11T01:01:06.127Z,96.5
2019-05-11T01:02:07.738Z,96.5
2019-05-11T01:03:09.594Z,96.3
2019-05-11T01:04:11.167Z,96.3
2019-05-11T01:05:13.040Z,96.3
2019-05-11T01:06:14.915Z,96.3
2019-05-11T01:07:16.820Z,96.4
2019-05-11T01:08:18.665Z,96.4
2019-05-11T01:09:20.545Z,96.4
2019-05-11T01:10:41.922Z,96.4
2019-05-11T01:11:44.248Z,96.3
2019-05-11T01:12:46.113Z,96.3
2019-05-11T01:13:47.970Z,96.2
2019-05-11T01:14:49.831Z,96.1
2019-05-11T01:15:51.691Z,96.2
2019-05-11T01:16:53.264Z,96.1
2019-05-11T01:17:54.856Z,96.1
2019-05-11T01:18:56.748Z,96.1
2019-05-11T01:19:58.608Z,96.1
2019-05-11T01:21:00.472Z,96.3
2019-05-11T01:22:02.331Z,96.3
2019-05-11T01:23:04.154Z,96.3
2019-05-11T01:24:05.461Z,96.4
2019-05-11T01:25:07.320Z,96.5
2019-05-11T01:26:09.188Z,96.5
2019-05-11T01:27:11.040Z,96.5
2019-05-11T01:28:12.899Z,96.4
2019-05-11T01:29:14.769Z,96.4
2019-05-11T01:30:16.660Z,96.4
2019-05-11T01:31:18.519Z,96.5
2019-05-11T01:32:20.382Z,96.4
2019-05-11T01:33:21.956Z,96.4
2019-05-11T01:34:23.545Z,96.4
2019-05-11T01:35:25.414Z,96.5
2019-05-11T01:36:27.270Z,96.6
2019-05-11T01:37:29.135Z,96.5
2019-05-11T01:38:30.996Z,96.4
2019-05-11T01:39:32.917Z,96.4
2019-05-11T01:40:34.778Z,96.3
2019-05-11T01:41:36.364Z,96.2
2019-05-11T01:42:38.219Z,96.2
2019-05-11T01:43:40.081Z,96.2
2019-05-11T01:44:42.015Z,96.3
2019-05-11T01:45:43.869Z,96.3
2019-05-11T01:46:45.729Z,96.4
2019-05-11T01:47:47.596Z,96.4
2019-05-11T01:48:49.458Z,96.4
2019-05-11T01:49:51.332Z,96.5
2019-05-11T01:50:53.185Z,96.4
2019-05-11T01:51:55.060Z,96.4
2019-05-11T01:52:56.919Z,96.4
2019-05-11T01:53:58.784Z,96.3
2019-05-11T01:55:00.640Z,96.3
2019-05-11T01:56:02.499Z,96.3
2019-05-11T01:57:04.362Z,96.4
2019-05-11T01:58:05.944Z,96.5
2019-05-11T01:59:07.816Z,96.5
2019-05-11T02:00:09.673Z,96.6
2019-05-11T02:01:11.541Z,96.5
2019-05-11T02:02:13.166Z,96.5
2019-05-11T02:03:14.760Z,96.6
2019-05-11T02:04:16.625Z,96.6
2019-05-11T02:05:18.489Z,96.8
2019-05-11T02:06:20.354Z,96.9
2019-05-11T02:07:21.944Z,96.9
2019-05-11T02:08:23.815Z,96.9
2019-05-11T02:09:25.692Z,97
2019-05-11T02:10:27.542Z,96.8
2019-05-11T02:11:29.448Z,96.7
2019-05-11T02:12:31.310Z,96.3
2019-05-11T02:13:33.172Z,96.2
2019-05-11T02:14:35.029Z,96.1
2019-05-11T02:15:36.888Z,96
2019-05-11T02:16:38.744Z,96.1
2019-05-11T02:17:40.606Z,96.1
2019-05-11T02:18:42.191Z,96.2
2019-05-11T02:19:44.057Z,96.4
2019-05-11T02:20:45.949Z,96.7
2019-05-11T02:21:47.813Z,96.8
2019-05-11T02:22:49.674Z,97
2019-05-11T02:23:51.265Z,97
2019-05-11T02:24:53.128Z,97.1
2019-05-11T02:25:54.992Z,97.1
2019-05-11T02:26:56.850Z,97
2019-05-11T02:27:58.709Z,96.6
2019-05-11T02:29:00.577Z,96.5
2019-05-11T02:30:02.560Z,96.5
2019-05-11T02:31:04.121Z,96.4
2019-05-11T02:32:05.140Z,96.3
2019-05-11T02:33:06.545Z,96.3
2019-05-11T02:34:08.103Z,96.4
2019-05-11T02:35:09.962Z,96.4
2019-05-11T02:36:11.825Z,96.4
2019-05-11T02:37:13.422Z,96.3
2019-05-11T02:38:15.278Z,96.3
2019-05-11T02:39:17.327Z,96.1
2019-05-11T02:40:19.183Z,96.1
2019-05-11T02:41:37.501Z,96
2019-05-11T02:42:39.977Z,95.9
2019-05-11T02:43:41.826Z,95.9
2019-05-11T02:44:43.686Z,95.9
2019-05-11T02:45:45.548Z,95.8
2019-05-11T02:46:47.402Z,95.8
2019-05-11T02:47:49.256Z,95.8
2019-05-11T02:48:51.115Z,95.8
2019-05-11T02:49:52.988Z,95.9
2019-05-11T02:50:54.856Z,96
2019-05-11T02:51:56.780Z,96.1
2019-05-11T02:52:58.636Z,96.2
2019-05-11T02:54:00.505Z,96.1
2019-05-11T02:55:02.354Z,96.1
2019-05-11T02:56:03.997Z,96.1
2019-05-11T02:57:05.578Z,96.1
2019-05-11T02:58:07.468Z,96.1
2019-05-11T02:59:09.424Z,96.2
2019-05-11T03:00:11.008Z,96.2
2019-05-11T03:01:12.867Z,96.3
2019-05-11T03:02:14.731Z,96.3
2019-05-11T03:03:16.621Z,96.4
2019-05-11T03:04:18.457Z,96.4
2019-05-11T03:05:20.369Z,96.4
2019-05-11T03:06:22.210Z,96.4
2019-05-11T03:07:24.067Z,96.4
2019-05-11T03:08:25.928Z,96.4
2019-05-11T03:09:27.785Z,96.5
2019-05-11T03:10:29.643Z,96.4
2019-05-11T03:11:31.510Z,96.4
2019-05-11T03:12:33.379Z,96.4
2019-05-11T03:13:35.239Z,96.5
2019-05-11T03:14:37.096Z,96.6
2019-05-11T03:15:38.955Z,96.5
2019-05-11T03:16:40.812Z,96.6
2019-05-11T03:17:42.674Z,96.5
2019-05-11T03:18:44.534Z,96.5
2019-05-11T03:19:46.396Z,96.5
2019-05-11T03:20:48.351Z,96.5
2019-05-11T03:21:50.215Z,96.5
2019-05-11T03:22:52.064Z,96.5
2019-05-11T03:23:53.930Z,96.5
2019-05-11T03:24:55.791Z,96.6
2019-05-11T03:25:57.665Z,96.6
2019-05-11T03:26:59.524Z,96.6
2019-05-11T03:28:01.390Z,96.5
2019-05-11T03:29:03.245Z,96.8
2019-05-11T03:30:04.822Z,96.7
2019-05-11T03:31:06.682Z,96.9
2019-05-11T03:32:08.539Z,97
2019-05-11T03:33:10.399Z,96.9
2019-05-11T03:34:12.267Z,96.8
2019-05-11T03:35:14.123Z,96.8
2019-05-11T03:36:16.015Z,96.9
2019-05-11T03:37:17.867Z,96.7
2019-05-11T03:38:19.730Z,96.8
2019-05-11T03:39:21.604Z,97
2019-05-11T03:40:23.467Z,97
2019-05-11T03:41:25.330Z,97.4
2019-05-11T03:42:27.193Z,97.3
2019-05-11T03:43:29.051Z,97.2
2019-05-11T03:44:30.915Z,97.1
2019-05-11T03:45:32.774Z,97.1
2019-05-11T03:46:34.639Z,97.2
2019-05-11T03:47:37.020Z,97.1
2019-05-11T03:48:38.598Z,97.1
2019-05-11T03:49:40.463Z,97.1
2019-05-11T03:50:42.326Z,97.4
2019-05-11T03:51:43.900Z,97.4
2019-05-11T03:52:45.770Z,97.5
2019-05-11T03:53:47.634Z,97.5
2019-05-11T03:54:49.498Z,97.4
2019-05-11T03:55:51.367Z,97.3
2019-05-11T03:56:53.234Z,97.4
2019-05-11T03:57:54.811Z,97.3
2019-05-11T03:58:56.673Z,97.4
2019-05-11T03:59:58.535Z,97.4
2019-05-11T04:01:00.403Z,97.4
2019-05-11T04:02:01.990Z,97.4
2019-05-11T04:03:03.863Z,97.3
2019-05-11T04:04:05.731Z,97.4
2019-05-11T04:05:07.603Z,97.2
2019-05-11T04:06:09.453Z,97.2
2019-05-11T04:07:11.316Z,97.3
2019-05-11T04:08:13.191Z,97.2
2019-05-11T04:09:14.783Z,97.4
2019-05-11T04:10:16.646Z,97.5
2019-05-11T04:11:18.510Z,97.5
2019-05-11T04:12:35.755Z,97.5
2019-05-11T04:13:37.728Z,97.7
2019-05-11T04:14:39.604Z,97.7
2019-05-11T04:15:41.477Z,97.8
2019-05-11T04:16:43.343Z,97.8
2019-05-11T04:17:45.212Z,97.8
2019-05-11T04:18:47.081Z,97.7
2019-05-11T04:19:48.949Z,97.8
2019-05-11T04:20:50.816Z,97.8
2019-05-11T04:21:52.680Z,97.8
2019-05-11T04:22:54.548Z,97.7
2019-05-11T04:23:56.416Z,97.4
2019-05-11T04:24:58.276Z,97.3
2019-05-11T04:26:00.135Z,97.3
2019-05-11T04:27:01.724Z,97.2
2019-05-11T04:28:03.313Z,97.2
2019-05-11T04:29:05.178Z,97.2
2019-05-11T04:30:06.765Z,97.3
2019-05-11T04:31:08.630Z,97.3
2019-05-11T04:32:10.503Z,97.4
2019-05-11T04:33:12.370Z,97.4
2019-05-11T04:34:14.240Z,97.4
2019-05-11T04:35:16.105Z,97.5
2019-05-11T04:36:17.968Z,97.7
2019-05-11T04:37:19.554Z,97.4
2019-05-11T04:38:21.415Z,97.2
2019-05-11T04:39:23.313Z,97.3
2019-05-11T04:40:25.183Z,97.1
2019-05-11T04:41:27.040Z,96.9
2019-05-11T04:42:28.895Z,96.8
2019-05-11T04:43:30.754Z,96.7
2019-05-11T04:44:32.620Z,96.6
2019-05-11T04:45:34.489Z,96.6
2019-05-11T04:46:36.348Z,96.6
2019-05-11T04:47:38.209Z,96.9
2019-05-11T04:48:40.070Z,97
2019-05-11T04:49:41.934Z,97.1
2019-05-11T04:50:43.800Z,97.1
2019-05-11T04:51:45.663Z,96.9
2019-05-11T04:52:47.521Z,96.9
2019-05-11T04:53:49.378Z,96.9
2019-05-11T04:54:51.238Z,96.7
2019-05-11T04:55:53.101Z,96.7
2019-05-11T04:56:54.961Z,96.6
2019-05-11T04:57:56.825Z,96.6
2019-05-11T04:58:58.130Z,96.5
2019-05-11T04:59:59.991Z,96.7
2019-05-11T05:01:01.604Z,97.1
2019-05-11T05:02:03.463Z,97.2
2019-05-11T05:03:05.044Z,96.9
2019-05-11T05:04:14.739Z,96.8
2019-05-11T05:05:16.315Z,96.9
2019-05-11T05:06:25.124Z,97.1
2019-05-11T05:07:26.697Z,97.2
2019-05-11T05:08:28.295Z,97.2
2019-05-11T05:09:30.372Z,97
2019-05-11T05:10:45.527Z,96.9
2019-05-11T05:11:47.400Z,97
2019-05-11T05:12:53.354Z,96.9
2019-05-11T05:14:11.981Z,96.6
2019-05-11T05:15:13.845Z,96.7
2019-05-11T05:16:15.424Z,96.7
2019-05-11T05:17:17.284Z,96.6
2019-05-11T05:18:19.140Z,96.7
2019-05-11T05:19:20.723Z,96.6
2019-05-11T05:20:22.585Z,96.5
2019-05-11T05:21:24.446Z,96.7
2019-05-11T05:22:28.590Z,96.7
2019-05-11T05:23:30.168Z,96.5
2019-05-11T05:24:31.750Z,96.4
2019-05-11T05:25:33.613Z,96.4
2019-05-11T05:26:35.478Z,96.7
2019-05-11T05:27:37.335Z,96.9
2019-05-11T05:28:39.191Z,97.2
2019-05-11T05:29:41.069Z,97.2
2019-05-11T05:30:42.929Z,96.9
2019-05-11T05:31:44.774Z,97.3
2019-05-11T05:32:46.635Z,97.1
2019-05-11T05:33:48.516Z,97
2019-05-11T05:34:50.376Z,97.1
2019-05-11T05:35:52.243Z,97
2019-05-11T05:36:54.167Z,97.1
2019-05-11T05:37:56.084Z,97
2019-05-11T05:38:57.942Z,96.8
2019-05-11T05:39:59.868Z,96.6
2019-05-11T05:41:01.731Z,96.7
2019-05-11T05:42:03.606Z,96.7
2019-05-11T05:43:05.456Z,96.8
2019-05-11T05:44:07.037Z,96.5
2019-05-11T05:45:08.901Z,96.8
2019-05-11T05:46:10.758Z,96.8
2019-05-11T05:47:12.615Z,96.5
2019-05-11T05:48:14.235Z,96.4
2019-05-11T05:49:16.085Z,96.6
2019-05-11T05:50:17.944Z,96.6
2019-05-11T05:51:19.805Z,96.6
2019-05-11T05:52:21.670Z,96.6
2019-05-11T05:53:22.967Z,96.7
2019-05-11T05:54:24.820Z,96.5
2019-05-11T05:55:26.678Z,96.5
2019-05-11T05:56:28.532Z,96.6
2019-05-11T05:57:30.399Z,96.6
2019-05-11T05:58:32.268Z,96.7
2019-05-11T05:59:34.132Z,96.8
2019-05-11T06:00:35.988Z,96.7
2019-05-11T06:01:37.846Z,96.8
2019-05-11T06:02:39.792Z,96.7
2019-05-11T06:03:41.651Z,96.9
2019-05-11T06:04:43.512Z,97
2019-05-11T06:05:45.102Z,96.9
2019-05-11T06:06:47.041Z,96.8
2019-05-11T06:07:48.878Z,97
2019-05-11T06:08:50.738Z,96.8
2019-05-11T06:09:52.627Z,96.8
2019-05-11T06:10:54.483Z,96.9
2019-05-11T06:11:56.346Z,96.7
2019-05-11T06:12:58.206Z,96.6
2019-05-11T06:14:00.062Z,96.8
2019-05-11T06:15:01.920Z,96.9
2019-05-11T06:16:03.777Z,97
2019-05-11T06:17:05.635Z,96.9
2019-05-11T06:18:07.204Z,96.6
2019-05-11T06:19:08.836Z,96.6
2019-05-11T06:20:11.333Z,96.5
2019-05-11T06:21:13.204Z,96.7
2019-05-11T06:22:15.064Z,96.6
2019-05-11T06:23:16.922Z,96.5
2019-05-11T06:24:18.639Z,96.4
2019-05-11T06:25:20.558Z,96.4
2019-05-11T06:26:22.419Z,96.3
2019-05-11T06:27:24.008Z,96
2019-05-11T06:28:25.880Z,96.1
2019-05-11T06:29:27.739Z,96.1
2019-05-11T06:30:29.599Z,96.4
2019-05-11T06:31:31.459Z,96.5
2019-05-11T06:32:33.323Z,96.1
2019-05-11T06:33:35.187Z,96.3
2019-05-11T06:34:37.053Z,96.4
2019-05-11T06:35:38.920Z,96.5
2019-05-11T06:36:40.785Z,96.4
2019-05-11T06:37:42.370Z,96.6
2019-05-11T06:38:43.668Z,96.4
2019-05-11T06:39:45.529Z,96.4
2019-05-11T06:40:47.391Z,96.3
2019-05-11T06:41:49.250Z,96.3
2019-05-11T06:42:51.116Z,96.3
2019-05-11T06:44:02.501Z,96.2
2019-05-11T06:45:04.354Z,96.1
2019-05-11T06:46:06.227Z,96.4
2019-05-11T06:47:08.187Z,96.5
2019-05-11T06:48:10.037Z,96.5
2019-05-11T06:49:11.906Z,96.4
2019-05-11T06:50:13.772Z,96.4
2019-05-11T06:51:15.625Z,96.2
2019-05-11T06:52:17.488Z,95.7
2019-05-11T06:53:19.349Z,95.8
2019-05-11T06:54:21.224Z,95.8
2019-05-11T06:55:23.082Z,95.8
2019-05-11T06:56:24.946Z,95.9
2019-05-11T06:57:26.812Z,95.8
2019-05-11T06:58:28.671Z,95.8
2019-05-11T06:59:30.532Z,96
2019-05-11T07:00:32.401Z,95.8
2019-05-11T07:01:34.262Z,95.6
2019-05-11T07:02:36.124Z,95.6
2019-05-11T07:03:37.988Z,95.9
2019-05-11T07:04:39.844Z,95.9
2019-05-11T07:05:41.712Z,95.7
2019-05-11T07:06:43.299Z,95.8
2019-05-11T07:07:48.289Z,95.8
2019-05-11T07:08:50.147Z,95.6
2019-05-11T07:09:52.009Z,95.6
2019-05-11T07:10:53.881Z,95.7
2019-05-11T07:11:55.812Z,95.7
2019-05-11T07:12:57.707Z,95.6
2019-05-11T07:13:59.576Z,95.5
2019-05-11T07:15:01.439Z,95.2
2019-05-11T07:16:03.298Z,95.1
2019-05-11T07:17:04.870Z,95.5
2019-05-11T07:18:06.733Z,95.7
2019-05-11T07:19:08.320Z,95.3
2019-05-11T07:20:10.202Z,95.4
2019-05-11T07:21:12.064Z,95.3
2019-05-11T07:22:13.926Z,95.3
2019-05-11T07:23:15.814Z,95.4
2019-05-11T07:24:17.677Z,95.4
2019-05-11T07:25:19.270Z,95.1
2019-05-11T07:26:21.128Z,95.4
2019-05-11T07:27:23.036Z,95.4
2019-05-11T07:28:24.879Z,95.4
2019-05-11T07:29:26.455Z,95.2
2019-05-11T07:30:28.318Z,95.2
2019-05-11T07:31:30.177Z,95.1
2019-05-11T07:32:32.039Z,95.2
2019-05-11T07:33:33.627Z,95.4
2019-05-11T07:34:35.488Z,95.2
2019-05-11T07:35:40.419Z,95.1
2019-05-11T07:36:42.287Z,95.1
2019-05-11T07:37:44.151Z,95.1
2019-05-11T07:38:49.273Z,95.4
2019-05-11T07:39:51.135Z,95.4
2019-05-11T07:40:53.000Z,95.5
2019-05-11T07:41:54.586Z,95
2019-05-11T07:42:58.656Z,94.8
2019-05-11T07:44:00.768Z,95
2019-05-11T07:45:02.632Z,95.1
2019-05-11T07:46:04.496Z,94.6
2019-05-11T07:47:08.698Z,94.6
2019-05-11T07:48:10.561Z,94.5
2019-05-11T07:49:12.424Z,94.6
2019-05-11T07:50:14.286Z,94.9
2019-05-11T07:51:18.657Z,94.8
2019-05-11T07:52:20.518Z,94.6
2019-05-11T07:53:22.381Z,95
2019-05-11T07:54:24.243Z,94.2
2019-05-11T07:55:28.510Z,94.3
2019-05-11T07:56:30.368Z,94.3
2019-05-11T07:57:31.955Z,94.6
2019-05-11T07:58:33.819Z,94.5
2019-05-11T07:59:37.880Z,94
2019-05-11T08:00:40.314Z,93.9
2019-05-11T08:01:42.177Z,94
2019-05-11T08:02:44.042Z,93.7
2019-05-11T08:03:48.238Z,93.7
2019-05-11T08:04:50.286Z,94.5
2019-05-11T08:05:52.150Z,94.2
2019-05-11T08:06:54.015Z,94.2
2019-05-11T08:07:55.589Z,94.3
2019-05-11T08:08:59.381Z,93.9
2019-05-11T08:10:01.242Z,94.1
2019-05-11T08:11:03.118Z,94
2019-05-11T08:12:04.984Z,94.1
2019-05-11T08:13:09.533Z,94.1
2019-05-11T08:14:11.398Z,94.3
2019-05-11T08:15:14.436Z,94.3
2019-05-11T08:16:19.211Z,93.9
2019-05-11T08:17:21.085Z,93.6
2019-05-11T08:18:22.950Z,93.6
2019-05-11T08:19:24.896Z,93.9
2019-05-11T08:20:29.596Z,93.5
2019-05-11T08:21:31.465Z,93.6
2019-05-11T08:22:33.053Z,93.8
2019-05-11T08:23:34.917Z,93.7
2019-05-11T08:24:39.059Z,93.5
2019-05-11T08:25:40.921Z,93.7
2019-05-11T08:26:42.785Z,93.7
2019-05-11T08:27:44.650Z,93.5
2019-05-11T08:28:49.094Z,93.8
2019-05-11T08:29:50.956Z,93.6
2019-05-11T08:30:52.824Z,93.6
2019-05-11T08:31:54.685Z,93.6
2019-05-11T08:32:58.904Z,93.6
2019-05-11T08:34:00.764Z,93.3
2019-05-11T08:35:02.632Z,93.6
2019-05-11T08:36:04.498Z,93.7
2019-05-11T08:37:06.076Z,93.4
2019-05-11T08:38:10.199Z,93.5
2019-05-11T08:39:12.065Z,93.7
2019-05-11T08:40:13.926Z,93.4
2019-05-11T08:41:18.165Z,93.2
2019-05-11T08:42:20.189Z,93.7
2019-05-11T08:43:22.103Z,93.3
2019-05-11T08:44:23.688Z,93.2
2019-05-11T08:45:28.394Z,92.9
2019-05-11T08:46:30.253Z,93
2019-05-11T08:47:31.549Z,93.5
2019-05-11T08:48:33.410Z,93
2019-05-11T08:49:37.810Z,93.1
2019-05-11T08:50:39.901Z,93.2
2019-05-11T08:51:41.762Z,93.1
2019-05-11T08:52:43.345Z,92.9
2019-05-11T08:53:45.207Z,92.2
2019-05-11T08:54:49.323Z,92.5
2019-05-11T08:55:51.183Z,92.3
2019-05-11T08:56:53.047Z,92.2
2019-05-11T08:57:54.634Z,92.4
2019-05-11T08:58:58.543Z,92
2019-05-11T08:59:59.974Z,92.1
2019-05-11T09:01:01.837Z,92
2019-05-11T09:02:03.703Z,92.3
2019-05-11T09:03:05.568Z,92.4
2019-05-11T09:04:09.563Z,92.2
2019-05-11T09:05:11.426Z,92.7
2019-05-11T09:06:13.291Z,92.6
2019-05-11T09:07:15.153Z,92.4
2019-05-11T09:08:19.462Z,92.3
2019-05-11T09:09:21.630Z,91.7
2019-05-11T09:10:23.485Z,91.9
2019-05-11T09:11:25.061Z,92.2
2019-05-11T09:12:29.460Z,92.1
2019-05-11T09:13:31.045Z,92.1
2019-05-11T09:14:32.908Z,92.1
2019-05-11T09:15:40.954Z,92
2019-05-11T09:16:42.830Z,91.4
2019-05-11T09:17:44.415Z,91.5
2019-05-11T09:18:48.351Z,91.9
2019-05-11T09:19:50.209Z,91.6
2019-05-11T09:20:51.790Z,91.4
2019-05-11T09:21:53.377Z,91.5
2019-05-11T09:22:55.236Z,91.5
2019-05-11T09:23:58.389Z,91.8
2019-05-11T09:25:00.250Z,92.4
2019-05-11T09:26:02.112Z,91.8
2019-05-11T09:27:03.969Z,91.9
2019-05-11T09:28:05.832Z,92.2
2019-05-11T09:29:09.939Z,91.9
2019-05-11T09:30:11.801Z,91.3
2019-05-11T09:31:13.666Z,91.4
2019-05-11T09:32:17.704Z,91.8
2019-05-11T09:33:21.271Z,91.2
2019-05-11T09:34:23.132Z,91.8
2019-05-11T09:35:24.997Z,91.6
2019-05-11T09:36:29.031Z,91.5
2019-05-11T09:37:30.951Z,91.5
2019-05-11T09:38:32.814Z,91.8
2019-05-11T09:39:34.384Z,91.5
2019-05-11T09:40:38.007Z,91.5
2019-05-11T09:41:40.375Z,91.3
2019-05-11T09:42:42.237Z,91.2
2019-05-11T09:43:43.822Z,91.2
2019-05-11T09:44:45.406Z,91.9
2019-05-11T09:45:52.499Z,92.1
2019-05-11T09:46:54.359Z,91.6
2019-05-11T09:48:00.519Z,91.1
2019-05-11T09:49:02.380Z,92
2019-05-11T09:50:04.241Z,91.2
2019-05-11T09:51:08.256Z,91.6
2019-05-11T09:52:09.839Z,91.1
2019-05-11T09:53:11.709Z,91.3
2019-05-11T09:54:13.291Z,90.8
2019-05-11T09:55:14.590Z,91.2
2019-05-11T09:56:18.741Z,90.9
2019-05-11T09:57:20.055Z,90.5
2019-05-11T09:58:21.640Z,90.4
2019-05-11T09:59:23.501Z,90.2
2019-05-11T10:00:25.365Z,89.8
2019-05-11T10:01:30.151Z,90.7
2019-05-11T10:02:32.012Z,90.9
2019-05-11T10:03:33.598Z,90.6
2019-05-11T10:04:35.185Z,90.7
2019-05-11T10:05:39.310Z,90.7
2019-05-11T10:06:41.173Z,90.9
2019-05-11T10:07:43.035Z,90.6
2019-05-11T10:08:44.898Z,90.7
2019-05-11T10:09:48.430Z,90.7
2019-05-11T10:10:50.006Z,91.4
2019-05-11T10:11:51.609Z,91.2
2019-05-11T10:12:53.305Z,90.6
2019-05-11T10:13:54.876Z,90.7
2019-05-11T10:14:59.679Z,90.8
2019-05-11T10:16:10.455Z,90.8
2019-05-11T10:17:12.501Z,90.8
2019-05-11T10:18:14.364Z,90.3
2019-05-11T10:19:18.291Z,90.5
2019-05-11T10:20:19.309Z,90.6
2019-05-11T10:21:21.167Z,90.6
2019-05-11T10:22:23.029Z,90.6
2019-05-11T10:23:24.896Z,90.5
2019-05-11T10:24:29.234Z,90.4
2019-05-11T10:25:31.095Z,90.5
2019-05-11T10:26:32.680Z,90.5
2019-05-11T10:27:34.545Z,90.9
2019-05-11T10:28:38.650Z,90.8
2019-05-11T10:29:40.168Z,90.7
2019-05-11T10:30:42.036Z,91
2019-05-11T10:31:43.903Z,90.7
2019-05-11T10:32:48.172Z,90.5
2019-05-11T10:33:50.249Z,90.7
2019-05-11T10:34:52.138Z,90.5
2019-05-11T10:35:54.003Z,90.7
2019-05-11T10:36:58.438Z,91.1
2019-05-11T10:38:00.026Z,90.3
2019-05-11T10:39:01.896Z,90.7
2019-05-11T10:40:03.752Z,90.5
2019-05-11T10:41:05.624Z,90.4
2019-05-11T10:42:09.673Z,90.5
2019-05-11T10:43:11.534Z,90.4
2019-05-11T10:44:13.399Z,90.5
2019-05-11T10:45:15.264Z,90.6
2019-05-11T10:46:23.732Z,90.8
2019-05-11T10:47:28.259Z,90.9
2019-05-11T10:48:29.849Z,90.9
2019-05-11T10:49:31.712Z,91.2
2019-05-11T10:50:33.578Z,91.2
2019-05-11T10:51:35.447Z,90.7
2019-05-11T10:52:39.620Z,90.6
2019-05-11T10:53:41.208Z,90.7
2019-05-11T10:54:42.878Z,90.7
2019-05-11T10:55:44.747Z,90.9
2019-05-11T10:56:48.765Z,91
2019-05-11T10:57:50.625Z,90.7
2019-05-11T10:58:52.485Z,91.5
2019-05-11T10:59:54.071Z,91.5
2019-05-11T11:00:57.980Z,91.2
2019-05-11T11:01:59.479Z,90.7
2019-05-11T11:03:01.347Z,90.6
2019-05-11T11:04:03.211Z,90.6
2019-05-11T11:05:04.780Z,90.5
2019-05-11T11:06:08.790Z,91.1
2019-05-11T11:07:10.380Z,91.1
2019-05-11T11:08:11.964Z,90.7
2019-05-11T11:09:13.841Z,90.3
2019-05-11T11:10:17.854Z,90.2
2019-05-11T11:11:19.695Z,90.2
2019-05-11T11:12:21.559Z,90.1
2019-05-11T11:13:23.421Z,90.1
2019-05-11T11:14:25.008Z,90.1
2019-05-11T11:15:29.500Z,90.1
2019-05-11T11:16:42.807Z,90
2019-05-11T11:17:44.750Z,90
2019-05-11T11:18:48.997Z,90.2
2019-05-11T11:19:50.854Z,90
2019-05-11T11:20:52.715Z,89.1
2019-05-11T11:21:54.578Z,89.1
2019-05-11T11:22:58.698Z,89.1
2019-05-11T11:24:00.282Z,90.2
2019-05-11T11:25:02.139Z,88.3
2019-05-11T11:26:03.861Z,87.3
2019-05-11T11:27:10.876Z,87.2
2019-05-11T11:28:12.529Z,85.8
2019-05-11T11:29:14.392Z,86.5
2019-05-11T11:30:18.837Z,87.3
2019-05-11T11:31:20.422Z,87.4
2019-05-11T11:32:22.284Z,87.8
2019-05-11T11:33:23.872Z,88.5
2019-05-11T11:34:27.823Z,87.2
2019-05-11T11:35:29.848Z,88.9
2019-05-11T11:36:31.708Z,87.1
2019-05-11T11:37:33.572Z,87.5
2019-05-11T11:38:37.133Z,87
2019-05-11T11:39:39.355Z,84.9
2019-05-11T11:40:43.431Z,85.5
2019-05-11T11:41:45.372Z,84.6
2019-05-11T11:42:49.809Z,82.6
2019-05-11T11:43:51.668Z,82.9
2019-05-11T11:44:53.531Z,83.8
2019-05-11T11:45:57.796Z,85.1
2019-05-11T11:46:59.551Z,84.8
2019-05-11T11:48:01.489Z,85.1
2019-05-11T11:49:03.352Z,83.4
2019-05-11T11:50:04.948Z,83.7
2019-05-11T11:51:08.653Z,84.2
2019-05-11T11:52:10.525Z,83.7
2019-05-11T11:53:12.547Z,84.4
2019-05-11T11:54:14.134Z,83.6
2019-05-11T11:55:15.718Z,84.2
2019-05-11T11:56:19.890Z,83.6
2019-05-11T11:57:21.749Z,85.2
2019-05-11T11:58:24.511Z,82.2
2019-05-11T11:59:29.310Z,83.7
2019-05-11T12:00:31.171Z,84.2
2019-05-11T12:01:33.036Z,83.5
2019-05-11T12:02:34.899Z,83.6
2019-05-11T12:03:38.467Z,84.8
2019-05-11T12:04:40.347Z,85.5
2019-05-11T12:05:42.208Z,84.5
2019-05-11T12:06:44.077Z,85.7
2019-05-11T12:07:45.941Z,87
2019-05-11T12:08:50.448Z,86.5
2019-05-11T12:09:52.307Z,84.8
2019-05-11T12:10:54.169Z,84.4
2019-05-11T12:11:57.850Z,82.9
2019-05-11T12:12:59.706Z,82.8
2019-05-11T12:14:01.563Z,82.4
2019-05-11T12:15:03.423Z,84.2
2019-05-11T12:16:07.970Z,84.4
2019-05-11T12:17:11.645Z,84.7
2019-05-11T12:18:13.516Z,85
2019-05-11T12:19:15.087Z,86
2019-05-11T12:20:18.640Z,85.5
2019-05-11T12:21:20.505Z,86.1
2019-05-11T12:22:22.367Z,86.7
2019-05-11T12:23:23.952Z,85.2
2019-05-11T12:24:25.817Z,85.8
2019-05-11T12:25:30.076Z,85.2
2019-05-11T12:26:31.946Z,85
2019-05-11T12:27:33.811Z,85.4
2019-05-11T12:28:38.036Z,85.1
2019-05-11T12:29:40.083Z,84.9
2019-05-11T12:30:41.943Z,85.8
2019-05-11T12:31:43.807Z,85.3
2019-05-11T12:32:45.673Z,86.3
2019-05-11T12:33:49.743Z,86.8
2019-05-11T12:34:51.608Z,84.6
2019-05-11T12:35:53.470Z,84.9
2019-05-11T12:36:55.334Z,85.7
2019-05-11T12:37:59.427Z,84.5
2019-05-11T12:39:01.290Z,85.6
2019-05-11T12:40:03.162Z,85.3
2019-05-11T12:41:04.748Z,83.7
2019-05-11T12:42:08.996Z,86.1
2019-05-11T12:43:10.589Z,87.4
2019-05-11T12:44:12.446Z,85.1
2019-05-11T12:45:14.034Z,85.5
2019-05-11T12:46:18.537Z,83.8
2019-05-11T12:47:25.420Z,83.2
2019-05-11T12:48:29.649Z,83
2019-05-11T12:49:31.515Z,83.6
2019-05-11T12:50:33.375Z,83.4
2019-05-11T12:51:35.240Z,83.6
2019-05-11T12:52:39.648Z,84
2019-05-11T12:53:41.243Z,84.4
2019-05-11T12:54:43.105Z,84.7
2019-05-11T12:55:44.967Z,83.9
2019-05-11T12:56:49.592Z,84.1
2019-05-11T12:57:51.456Z,84.2
2019-05-11T12:58:53.322Z,84.7
2019-05-11T12:59:55.184Z,84.6
2019-05-11T13:00:59.612Z,86.1
2019-05-11T13:02:01.476Z,86.1
2019-05-11T13:03:03.071Z,85.3
2019-05-11T13:04:04.943Z,84.9
2019-05-11T13:05:09.698Z,85.3
2019-05-11T13:06:11.555Z,85.2
2019-05-11T13:07:16.395Z,87.4
2019-05-11T13:08:20.688Z,87
2019-05-11T13:09:22.553Z,87.1
2019-05-11T13:10:24.126Z,86
2019-05-11T13:11:25.991Z,85.7
2019-05-11T13:12:29.941Z,85.6
2019-05-11T13:13:31.807Z,85.5
2019-05-11T13:14:33.668Z,85.5
2019-05-11T13:15:35.532Z,87.2
2019-05-11T13:16:39.556Z,87
2019-05-11T13:17:41.754Z,85.2
2019-05-11T13:18:43.625Z,85.9
2019-05-11T13:19:47.819Z,85.4
2019-05-11T13:20:49.778Z,84.9
2019-05-11T13:21:51.643Z,84.9
2019-05-11T13:22:53.515Z,86.6
2019-05-11T13:23:57.545Z,85.8
2019-05-11T13:24:59.427Z,85.6
2019-05-11T13:26:01.300Z,85.5
2019-05-11T13:27:03.162Z,85.2
2019-05-11T13:28:04.748Z,85.7
2019-05-11T13:29:08.280Z,86.1
2019-05-11T13:30:10.148Z,85.7
2019-05-11T13:31:12.019Z,87
2019-05-11T13:32:13.883Z,83.6
2019-05-11T13:33:15.743Z,82.3
2019-05-11T13:34:20.223Z,81.7
2019-05-11T13:35:22.086Z,82.9
2019-05-11T13:36:23.947Z,83.9
2019-05-11T13:37:28.055Z,84
2019-05-11T13:38:30.107Z,84.3
2019-05-11T13:39:31.973Z,83.9
2019-05-11T13:40:33.557Z,82.9
2019-05-11T13:41:35.417Z,84.4
2019-05-11T13:42:39.650Z,84.9
2019-05-11T13:43:41.513Z,85
2019-05-11T13:44:43.380Z,83.7
2019-05-11T13:45:45.245Z,83.8
2019-05-11T13:46:49.271Z,82.4
2019-05-11T13:47:59.144Z,84.6
2019-05-11T13:49:01.120Z,84.7
2019-05-11T13:50:02.722Z,83.6
2019-05-11T13:51:04.584Z,83.2
2019-05-11T13:52:08.423Z,84.3
2019-05-11T13:53:10.383Z,83.5